Time;durP1;ratioP1;P1;durP2;ratioP2;P2;SDS_P1;SDS_P2;PMS_P1;PMS_P2;Temp;Humidity;BMP_temperature;BMP_pressure;BME280_temperature;BME280_humidity;BME280_pressure;Samples;Min_cycle;Max_cycle;Signal;HPM_P1;HPM_P2
2023/11/24 00:01:47;;;;;;;10.00;9.05;;;;;;;7.72;92.53;97536.88;4966255;28;20022;-73
2023/11/24 00:04:12;;;;;;;9.98;9.07;;;;;;;7.57;92.65;97539.28;4977247;28;20053;-73
2023/11/24 00:06:37;;;;;;;9.88;8.98;;;;;;;7.62;92.56;97548.25;4965222;28;20119;-73
2023/11/24 00:09:03;;;;;;;12.38;9.88;;;;;;;7.68;92.75;97546.44;4979824;28;20038;-75
2023/11/24 00:11:28;;;;;;;11.18;10.07;;;;;;;7.63;93.25;97527.63;4983628;28;20061;-73
2023/11/24 00:13:53;;;;;;;11.02;10.05;;;;;;;7.66;92.68;97516.41;4962906;28;20046;-73
2023/11/24 00:16:19;;;;;;;10.85;9.82;;;;;;;7.57;93.21;97501.78;4961259;28;20157;-74
2023/11/24 00:18:45;;;;;;;10.35;9.35;;;;;;;7.65;93.35;97533.53;4981209;28;20046;-73
2023/11/24 00:21:10;;;;;;;11.30;10.25;;;;;;;7.64;93.56;97507.78;4980428;28;20022;-73
2023/11/24 00:23:36;;;;;;;11.32;10.30;;;;;;;7.73;93.15;97516.22;4941135;28;20045;-73
2023/11/24 00:26:07;;;;;;;10.88;9.88;;;;;;;7.71;93.26;97519.16;4956510;28;20042;-73
2023/11/24 00:28:36;;;;;;;10.80;9.80;;;;;;;7.46;93.20;97473.19;4950832;28;20380;-74
2023/11/24 00:31:04;;;;;;;10.00;9.10;;;;;;;7.68;93.81;97519.66;4965879;28;20032;-73
2023/11/24 00:33:29;;;;;;;10.55;9.55;;;;;;;7.73;93.35;97497.47;4959741;28;20042;-73
2023/11/24 00:35:55;;;;;;;10.60;9.68;;;;;;;7.72;93.69;97499.38;4960280;28;20510;-73
2023/11/24 00:38:20;;;;;;;10.55;9.55;;;;;;;7.57;93.31;97491.88;4975342;28;20514;-73
2023/11/24 00:40:46;;;;;;;10.18;9.27;;;;;;;7.64;93.80;97505.94;4963383;28;20035;-72
2023/11/24 00:43:12;;;;;;;11.00;10.00;;;;;;;7.64;92.68;97472.97;4945296;28;20039;-72
2023/11/24 00:45:37;;;;;;;10.75;9.75;;;;;;;7.66;92.97;97462.81;4965111;28;20035;-73
2023/11/24 00:48:06;;;;;;;10.10;9.20;;;;;;;7.58;93.63;97468.59;4961828;28;20105;-74
2023/11/24 00:50:32;;;;;;;10.82;9.82;;;;;;;7.71;93.29;97470.09;4960775;28;20395;-74
2023/11/24 00:52:58;;;;;;;10.90;9.82;;;;;;;7.66;92.82;97484.25;4963159;28;20038;-73
2023/11/24 00:55:24;;;;;;;11.60;10.40;;;;;;;7.72;93.32;97477.94;4977040;28;20495;-73
2023/11/24 00:57:49;;;;;;;11.18;10.18;;;;;;;7.68;92.82;97471.41;4948330;28;20109;-74
2023/11/24 01:00:15;;;;;;;11.18;10.18;;;;;;;7.74;93.66;97470.44;4963913;28;20033;-74
2023/11/24 01:02:41;;;;;;;9.60;8.80;;;;;;;7.68;93.92;97465.25;4965531;28;20062;-74
2023/11/24 01:05:09;;;;;;;10.98;9.98;;;;;;;7.65;93.42;97429.03;4947115;28;20156;-73
2023/11/24 01:07:34;;;;;;;9.20;8.43;;;;;;;7.72;93.36;97450.31;4959079;28;20043;-72
2023/11/24 01:10:00;;;;;;;9.00;8.10;;;;;;;7.73;93.32;97457.28;4967116;28;20030;-74
2023/11/24 01:12:26;;;;;;;9.68;8.77;;;;;;;7.77;93.41;97464.56;4977065;28;20050;-74
2023/11/24 01:14:51;;;;;;;9.65;8.75;;;;;;;7.80;93.47;97458.75;4962039;28;20027;-74
2023/11/24 01:17:17;;;;;;;10.65;9.65;;;;;;;7.79;93.64;97456.31;4960346;28;20030;-73
2023/11/24 01:19:42;;;;;;;10.93;9.82;;;;;;;7.59;94.89;97419.28;4980957;28;20030;-74
2023/11/24 01:22:08;;;;;;;9.75;8.75;;;;;;;7.77;93.95;97453.84;4961659;28;20669;-73
2023/11/24 01:24:34;;;;;;;9.50;8.63;;;;;;;7.81;94.39;97455.00;4966601;28;20031;-74
2023/11/24 01:27:02;;;;;;;9.00;8.20;;;;;;;7.86;94.60;97439.00;4962385;28;20031;-73
2023/11/24 01:29:28;;;;;;;9.50;8.63;;;;;;;7.88;93.92;97450.31;4944999;28;20030;-74
2023/11/24 01:31:54;;;;;;;9.23;8.43;;;;;;;7.90;94.50;97447.38;4947509;28;20041;-73
2023/11/24 01:34:19;;;;;;;9.95;9.05;;;;;;;7.93;94.54;97426.25;4962768;28;20042;-73
2023/11/24 01:36:45;;;;;;;9.73;8.82;;;;;;;7.82;94.07;97411.06;4942139;28;20034;-73
2023/11/24 01:39:12;;;;;;;8.75;7.95;;;;;;;7.94;94.39;97427.03;4949381;28;20026;-75
2023/11/24 01:41:39;;;;;;;9.18;8.38;;;;;;;7.91;93.89;97414.94;4974695;28;20070;-74
2023/11/24 01:44:06;;;;;;;8.15;7.45;;;;;;;7.99;93.78;97414.53;4967019;28;20029;-74
2023/11/24 01:46:31;;;;;;;8.15;7.45;;;;;;;7.89;94.16;97417.06;4961275;28;20046;-74
2023/11/24 01:48:57;;;;;;;7.97;7.30;;;;;;;7.95;94.41;97413.41;4947391;28;20037;-74
2023/11/24 01:51:23;;;;;;;8.55;7.60;;;;;;;7.99;94.49;97440.53;4950324;28;20540;-73
2023/11/24 01:53:51;;;;;;;9.15;8.25;;;;;;;7.88;94.79;97460.19;4959256;28;20451;-74
2023/11/24 01:56:17;;;;;;;8.82;8.02;;;;;;;7.98;94.79;97552.31;4962232;28;20038;-74
2023/11/24 01:58:42;;;;;;;9.45;7.03;;;;;;;7.82;94.67;97538.94;4950294;28;20019;-72
2023/11/24 02:01:08;;;;;;;3.88;1.90;;;;;;;7.23;89.13;97543.78;4945982;28;20034;-73
2023/11/24 02:03:34;;;;;;;4.28;1.90;;;;;;;6.64;89.23;97528.09;4940331;28;20052;-73
2023/11/24 02:05:59;;;;;;;1.67;1.58;;;;;;;6.49;89.83;97514.41;4962804;28;20109;-72
2023/11/24 02:08:25;;;;;;;3.17;1.52;;;;;;;6.49;90.21;97509.06;4945256;28;20417;-73
2023/11/24 02:10:50;;;;;;;1.67;1.48;;;;;;;6.26;91.50;97489.31;4963350;28;20435;-72
2023/11/24 02:13:16;;;;;;;3.03;1.30;;;;;;;6.38;91.38;97478.59;4962921;28;20030;-72
2023/11/24 02:15:41;;;;;;;1.90;1.48;;;;;;;6.51;91.64;97469.53;4955833;28;20039;-71
2023/11/24 02:18:07;;;;;;;4.97;1.70;;;;;;;6.67;91.90;97487.50;4980513;28;20034;-73
2023/11/24 02:20:33;;;;;;;2.53;1.35;;;;;;;6.61;91.53;97465.19;4973618;28;20044;-74
2023/11/24 02:22:59;;;;;;;1.77;1.58;;;;;;;6.68;92.33;97463.19;4965736;28;20022;-73
2023/11/24 02:25:25;;;;;;;1.80;1.52;;;;;;;6.79;92.53;97473.03;4959422;28;20081;-73
2023/11/24 02:27:50;;;;;;;1.60;1.50;;;;;;;6.82;92.41;97464.53;4945295;28;20023;-73
2023/11/24 02:30:15;;;;;;;1.95;1.33;;;;;;;7.00;92.20;97478.78;4943192;28;20410;-73
2023/11/24 02:32:41;;;;;;;2.25;1.48;;;;;;;6.90;92.45;97458.00;4979834;28;20062;-74
2023/11/24 02:35:09;;;;;;;1.38;1.27;;;;;;;7.05;92.27;97476.22;4944457;28;20554;-74
2023/11/24 02:37:35;;;;;;;1.13;1.10;;;;;;;7.07;92.85;97482.13;4949291;28;20022;-73
2023/11/24 02:40:00;;;;;;;2.47;1.35;;;;;;;7.04;92.34;97469.22;4945286;28;20451;-74
2023/11/24 02:42:26;;;;;;;1.45;1.40;;;;;;;7.14;92.57;97485.47;4942873;28;20026;-74
2023/11/24 02:44:51;;;;;;;1.63;1.10;;;;;;;7.06;92.71;97477.81;4961702;28;20061;-73
2023/11/24 02:47:17;;;;;;;1.45;1.30;;;;;;;7.09;92.86;97453.25;4960766;28;20018;-75
2023/11/24 02:49:42;;;;;;;2.60;1.35;;;;;;;7.23;92.77;97474.16;4962584;28;20034;-73
2023/11/24 02:52:08;;;;;;;2.15;1.52;;;;;;;7.23;92.30;97476.81;4962553;28;20059;-74
2023/11/24 02:54:33;;;;;;;2.83;1.30;;;;;;;7.16;92.45;97483.38;4971676;28;20051;-73
2023/11/24 02:56:58;;;;;;;1.20;1.10;;;;;;;7.04;92.23;97463.88;4962955;28;20049;-74
2023/11/24 02:59:26;;;;;;;2.65;1.63;;;;;;;7.25;92.24;97472.03;4974226;28;20403;-74
2023/11/24 03:01:51;;;;;;;1.25;1.15;;;;;;;7.34;91.45;97485.84;4965119;28;20474;-73
2023/11/24 03:04:17;;;;;;;1.70;1.30;;;;;;;7.35;91.27;97480.22;4973500;28;20090;-73
2023/11/24 03:06:42;;;;;;;1.98;1.52;;;;;;;7.30;91.46;97480.16;4962528;28;20101;-73
2023/11/24 03:09:09;;;;;;;1.70;1.40;;;;;;;7.26;91.49;97468.28;4943772;28;20082;-73
2023/11/24 03:11:36;;;;;;;2.38;1.42;;;;;;;7.35;91.76;97455.34;4948954;28;20102;-72
2023/11/24 03:14:02;;;;;;;2.13;1.35;;;;;;;7.44;91.42;97429.78;4944587;28;20029;-72
2023/11/24 03:16:27;;;;;;;1.90;1.40;;;;;;;7.34;91.57;97451.03;4959471;28;20109;-72
2023/11/24 03:18:53;;;;;;;2.08;1.40;;;;;;;7.40;91.22;97466.09;4946026;28;20031;-72
2023/11/24 03:21:19;;;;;;;2.58;1.35;;;;;;;7.26;92.12;97462.16;4961881;28;20398;-72
2023/11/24 03:23:45;;;;;;;2.17;1.30;;;;;;;7.25;91.40;97465.84;4962778;28;20045;-71
2023/11/24 03:26:10;;;;;;;3.03;1.60;;;;;;;7.34;91.15;97453.69;4942004;28;20030;-71
2023/11/24 03:28:37;;;;;;;1.98;1.38;;;;;;;7.15;91.95;97454.97;4972146;28;20049;-71
2023/11/24 03:31:02;;;;;;;1.67;1.48;;;;;;;7.23;91.80;97446.56;4982252;28;20431;-70
2023/11/24 03:33:29;;;;;;;4.38;1.60;;;;;;;7.34;91.54;97437.63;4973842;28;20114;-71
2023/11/24 03:35:54;;;;;;;2.33;1.42;;;;;;;7.21;91.18;97437.94;4981618;28;20030;-72
2023/11/24 03:38:20;;;;;;;1.40;1.30;;;;;;;7.21;92.19;97480.78;4976199;28;20034;-71
2023/11/24 03:40:47;;;;;;;2.22;1.60;;;;;;;7.23;91.42;97473.31;4945958;28;20564;-72
2023/11/24 03:43:13;;;;;;;3.35;1.67;;;;;;;7.17;91.58;97474.28;4959402;28;20403;-72
2023/11/24 03:45:39;;;;;;;2.38;1.42;;;;;;;7.17;91.28;97485.78;4980143;28;20026;-71
2023/11/24 03:48:04;;;;;;;7.07;2.00;;;;;;;7.16;91.40;97470.81;4959998;28;20038;-71
2023/11/24 03:50:30;;;;;;;2.50;1.48;;;;;;;7.27;91.37;97474.47;4949796;28;20437;-70
2023/11/24 03:52:55;;;;;;;2.78;1.50;;;;;;;7.36;90.44;97475.69;4960853;28;20031;-73
2023/11/24 03:55:20;;;;;;;3.50;1.40;;;;;;;7.38;90.74;97476.25;4967160;28;20510;-70
2023/11/24 03:57:46;;;;;;;2.85;1.40;;;;;;;7.29;90.98;97464.31;4977545;28;20034;-72
2023/11/24 04:00:13;;;;;;;7.28;4.72;;;;;;;7.42;90.83;97464.81;4945396;28;20080;-72
2023/11/24 04:02:39;;;;;;;7.28;3.60;;;;;;;7.43;90.18;97457.59;4962377;28;20039;-72
2023/11/24 04:05:05;;;;;;;4.15;2.58;;;;;;;7.42;90.60;97472.06;4945598;28;20037;-70
2023/11/24 04:07:31;;;;;;;2.42;1.88;;;;;;;7.36;91.23;97479.19;4959332;28;20030;-71
2023/11/24 04:09:56;;;;;;;2.05;1.75;;;;;;;7.35;91.08;97458.81;4951786;28;20382;-72
2023/11/24 04:12:21;;;;;;;2.75;1.63;;;;;;;7.29;90.95;97434.84;4978449;28;20162;-73
2023/11/24 04:14:47;;;;;;;3.85;1.48;;;;;;;7.32;91.25;97442.41;4947548;28;20415;-71
2023/11/24 04:17:13;;;;;;;3.38;1.60;;;;;;;7.36;90.69;97447.03;4961697;28;20042;-72
2023/11/24 04:19:40;;;;;;;4.07;1.40;;;;;;;7.37;90.32;97443.31;4939558;29;20047;-71
2023/11/24 04:22:06;;;;;;;2.17;1.52;;;;;;;7.36;91.00;97448.91;4974778;28;20039;-71
2023/11/24 04:24:31;;;;;;;3.67;1.83;;;;;;;7.24;90.30;97426.72;4967678;28;20041;-71
2023/11/24 04:26:57;;;;;;;2.30;1.70;;;;;;;7.33;90.78;97463.59;4979287;28;20035;-71
2023/11/24 04:29:24;;;;;;;2.58;1.70;;;;;;;7.30;91.01;97441.84;4979167;28;20026;-71
2023/11/24 04:31:49;;;;;;;2.80;1.70;;;;;;;7.33;91.48;97452.88;4981564;28;20057;-71
2023/11/24 04:34:15;;;;;;;2.00;1.50;;;;;;;7.33;91.09;97452.88;4959021;28;20022;-70
2023/11/24 04:36:40;;;;;;;2.17;1.65;;;;;;;7.34;91.58;97448.34;4982317;28;20037;-71
2023/11/24 04:39:05;;;;;;;5.25;2.20;;;;;;;7.34;90.75;97442.97;4964045;28;20026;-70
2023/11/24 04:41:31;;;;;;;2.08;1.40;;;;;;;7.38;90.72;97439.56;4974500;28;20059;-70
2023/11/24 04:43:57;;;;;;;3.00;1.73;;;;;;;7.33;92.08;97436.00;4964576;28;20173;-71
2023/11/24 04:46:22;;;;;;;2.67;1.50;;;;;;;7.37;91.26;97427.25;4944305;28;20185;-71
2023/11/24 04:48:48;;;;;;;2.35;1.90;;;;;;;7.37;91.46;97432.63;4978500;28;20030;-71
2023/11/24 04:51:13;;;;;;;1.73;1.55;;;;;;;7.34;90.65;97427.72;4979721;28;20038;-73
2023/11/24 04:53:38;;;;;;;2.80;1.77;;;;;;;7.33;91.48;97430.63;4977805;28;20037;-73
2023/11/24 04:56:05;;;;;;;2.85;1.70;;;;;;;7.35;91.70;97433.91;4982131;28;20113;-71
2023/11/24 04:58:30;;;;;;;2.85;1.80;;;;;;;7.25;91.62;97423.00;4965515;28;20057;-72
2023/11/24 05:00:56;;;;;;;3.50;1.70;;;;;;;7.32;90.87;97434.38;4961654;28;20674;-71
2023/11/24 05:03:21;;;;;;;2.45;1.67;;;;;;;7.43;90.60;97454.91;4964603;28;20056;-72
2023/11/24 05:05:47;;;;;;;5.10;1.80;;;;;;;7.35;91.33;97449.97;4958629;28;20042;-73
2023/11/24 05:08:13;;;;;;;2.70;1.90;;;;;;;7.23;91.20;97446.56;4962985;28;20053;-71
2023/11/24 05:10:38;;;;;;;2.85;1.85;;;;;;;7.21;91.76;97451.34;4964992;28;20450;-73
2023/11/24 05:13:03;;;;;;;4.03;2.45;;;;;;;7.15;91.42;97450.41;4981504;28;20034;-74
2023/11/24 05:15:31;;;;;;;3.88;2.22;;;;;;;7.11;91.89;97443.13;4974163;28;20038;-74
2023/11/24 05:17:57;;;;;;;6.60;2.40;;;;;;;7.06;91.89;97448.38;4964877;28;20030;-74
2023/11/24 05:20:24;;;;;;;4.60;2.53;;;;;;;6.93;92.65;97439.56;4960502;28;20096;-74
2023/11/24 05:22:49;;;;;;;6.18;2.38;;;;;;;6.97;91.61;97454.13;4982892;28;20431;-73
2023/11/24 05:25:14;;;;;;;4.13;2.30;;;;;;;6.90;91.47;97445.44;4978144;28;20134;-75
2023/11/24 05:27:40;;;;;;;10.32;7.43;;;;;;;6.85;91.99;97445.34;4946834;28;20073;-75
2023/11/24 05:30:08;;;;;;;3.00;2.38;;;;;;;6.81;91.95;97446.84;4977740;28;20163;-73
2023/11/24 05:32:35;;;;;;;4.88;2.15;;;;;;;6.73;91.88;97447.22;4965250;28;20038;-74
2023/11/24 05:35:00;;;;;;;5.22;2.20;;;;;;;6.49;90.60;97434.19;4961414;28;20521;-74
2023/11/24 05:37:26;;;;;;;5.32;1.80;;;;;;;6.49;89.04;97429.63;4950922;28;20019;-73
2023/11/24 05:39:52;;;;;;;5.63;2.30;;;;;;;6.31;89.11;97427.13;4963352;28;20101;-74
2023/11/24 05:42:17;;;;;;;7.25;1.90;;;;;;;6.36;87.67;97429.09;4960992;28;20026;-72
2023/11/24 05:44:43;;;;;;;5.70;2.50;;;;;;;6.43;87.04;97440.47;4963575;28;20484;-74
2023/11/24 05:47:08;;;;;;;6.50;2.53;;;;;;;6.24;86.97;97442.47;4962660;28;20105;-73
2023/11/24 05:49:34;;;;;;;7.97;3.15;;;;;;;6.30;85.98;97430.84;4980874;28;20045;-72
2023/11/24 05:51:59;;;;;;;6.38;2.90;;;;;;;6.22;85.49;97428.53;4962600;28;20411;-73
2023/11/24 05:54:25;;;;;;;7.13;2.28;;;;;;;6.19;85.36;97434.34;4957963;28;20054;-73
2023/11/24 05:56:50;;;;;;;6.55;2.13;;;;;;;6.13;85.23;97429.94;4966347;28;20034;-72
2023/11/24 05:59:17;;;;;;;9.75;2.35;;;;;;;6.14;85.13;97428.88;4978274;28;20113;-73
2023/11/24 06:01:43;;;;;;;9.48;2.60;;;;;;;5.91;84.90;97410.22;4964875;28;20693;-74
2023/11/24 06:04:09;;;;;;;6.70;3.30;;;;;;;5.94;84.45;97421.25;4960001;28;20153;-74
2023/11/24 06:06:35;;;;;;;10.25;2.30;;;;;;;5.91;85.17;97431.59;4963628;28;20026;-74
2023/11/24 06:09:01;;;;;;;5.72;2.50;;;;;;;5.88;84.69;97442.75;4944593;28;20042;-74
2023/11/24 06:11:27;;;;;;;6.57;1.98;;;;;;;5.82;85.09;97443.63;4949749;28;20028;-73
2023/11/24 06:13:53;;;;;;;12.15;2.90;;;;;;;5.68;85.04;97431.56;4961351;28;20039;-71
2023/11/24 06:16:18;;;;;;;8.27;2.83;;;;;;;5.53;85.90;97406.13;4943740;28;20032;-72
2023/11/24 06:18:44;;;;;;;6.18;2.28;;;;;;;5.65;85.34;97416.03;4962331;28;20090;-74
2023/11/24 06:21:12;;;;;;;10.65;2.45;;;;;;;5.60;86.11;97428.19;4961701;28;20089;-72
2023/11/24 06:23:38;;;;;;;5.82;2.40;;;;;;;5.57;86.18;97422.50;4980732;28;20039;-74
2023/11/24 06:26:04;;;;;;;7.25;2.17;;;;;;;5.57;85.68;97426.00;4980272;28;20037;-74
2023/11/24 06:28:29;;;;;;;8.15;2.53;;;;;;;5.45;86.16;97430.50;4973337;28;20031;-74
2023/11/24 06:30:54;;;;;;;8.10;2.70;;;;;;;5.50;85.51;97441.31;4963830;28;20080;-72
2023/11/24 06:33:20;;;;;;;6.00;2.50;;;;;;;5.52;84.78;97430.41;4977119;28;20039;-75
2023/11/24 06:35:45;;;;;;;8.88;3.10;;;;;;;5.54;85.39;97431.78;4976627;28;20399;-73
2023/11/24 06:38:10;;;;;;;7.65;3.03;;;;;;;5.53;85.15;97416.81;4958989;28;20035;-74
2023/11/24 06:40:36;;;;;;;9.48;2.58;;;;;;;5.58;84.60;97422.28;4963177;28;20404;-74
2023/11/24 06:43:01;;;;;;;8.75;2.40;;;;;;;5.56;84.84;97421.69;4960267;28;20075;-74
2023/11/24 06:45:26;;;;;;;7.72;3.40;;;;;;;5.53;84.63;97419.47;4982631;28;20474;-74
2023/11/24 06:47:52;;;;;;;9.43;4.22;;;;;;;5.48;84.58;97411.34;4979271;28;20038;-74
2023/11/24 06:50:17;;;;;;;10.82;3.10;;;;;;;5.48;84.62;97406.00;4960587;28;20564;-74
2023/11/24 06:52:43;;;;;;;8.63;3.00;;;;;;;5.47;84.58;97412.41;4978380;28;20040;-72
2023/11/24 06:55:10;;;;;;;6.40;3.05;;;;;;;5.58;84.15;97421.44;4961135;28;20030;-75
2023/11/24 06:57:35;;;;;;;10.27;2.90;;;;;;;5.62;84.40;97421.81;4963215;28;20088;-73
2023/11/24 07:00:03;;;;;;;8.10;3.13;;;;;;;5.66;83.73;97423.78;4979282;28;20497;-72
2023/11/24 07:02:29;;;;;;;7.15;2.67;;;;;;;5.47;84.52;97414.25;4957971;28;20158;-73
2023/11/24 07:04:54;;;;;;;8.23;2.92;;;;;;;5.60;83.91;97422.06;4959361;28;20113;-73
2023/11/24 07:07:21;;;;;;;8.00;3.10;;;;;;;5.57;84.14;97415.31;4958617;28;20074;-70
2023/11/24 07:09:46;;;;;;;8.05;2.85;;;;;;;5.59;84.23;97417.75;4979749;28;20018;-72
2023/11/24 07:12:17;;;;;;;10.63;3.50;;;;;;;5.48;84.02;97416.69;4961169;28;20042;-71
2023/11/24 07:14:46;;;;;;;8.80;3.08;;;;;;;5.57;83.78;97418.00;4961664;28;20494;-71
2023/11/24 07:17:12;;;;;;;11.30;3.10;;;;;;;5.54;84.35;97415.78;4957169;28;20640;-74
2023/11/24 07:19:38;;;;;;;11.25;3.30;;;;;;;5.56;83.96;97413.69;4980268;28;20062;-74
2023/11/24 07:22:03;;;;;;;11.10;3.15;;;;;;;5.53;84.23;97397.31;4956169;28;20662;-74
2023/11/24 07:24:29;;;;;;;11.60;3.75;;;;;;;5.62;84.24;97411.94;4962618;28;20035;-72
2023/11/24 07:26:54;;;;;;;8.82;3.30;;;;;;;5.66;83.76;97415.78;4960592;28;20549;-72
2023/11/24 07:29:21;;;;;;;15.20;6.35;;;;;;;5.68;83.64;97415.53;4976434;28;20030;-73
2023/11/24 07:31:48;;;;;;;11.50;5.10;;;;;;;5.73;84.22;97423.66;4956552;28;20395;-72
2023/11/24 07:34:14;;;;;;;12.18;5.20;;;;;;;5.72;83.42;97414.03;4960937;28;20113;-70
2023/11/24 07:36:40;;;;;;;11.18;4.22;;;;;;;5.66;83.57;97396.25;4962893;28;20122;-72
2023/11/24 07:39:06;;;;;;;10.35;3.47;;;;;;;5.74;83.21;97387.91;4962784;28;20061;-71
2023/11/24 07:41:31;;;;;;;9.55;3.63;;;;;;;5.82;83.26;97392.88;4973612;28;20023;-71
2023/11/24 07:43:56;;;;;;;9.77;3.40;;;;;;;5.81;83.03;97394.72;4984450;28;20047;-72
2023/11/24 07:46:22;;;;;;;9.63;3.67;;;;;;;5.77;82.93;97396.25;4962808;28;20054;-71
2023/11/24 07:48:47;;;;;;;15.55;3.78;;;;;;;5.80;82.72;97392.31;4963772;28;20093;-71
2023/11/24 07:51:12;;;;;;;12.93;4.18;;;;;;;5.82;82.17;97384.88;4970027;28;20463;-71
2023/11/24 07:53:38;;;;;;;10.73;3.63;;;;;;;5.85;82.92;97389.78;4966605;28;20042;-71
2023/11/24 07:56:06;;;;;;;11.02;4.00;;;;;;;5.81;83.01;97380.59;4980778;28;20620;-71
2023/11/24 07:58:31;;;;;;;11.77;4.00;;;;;;;5.84;82.19;97396.13;4967739;28;20045;-72
2023/11/24 08:00:57;;;;;;;14.68;4.80;;;;;;;5.79;82.43;97391.47;4946673;28;20390;-72
2023/11/24 08:03:24;;;;;;;11.07;3.72;;;;;;;5.79;83.02;97398.72;4959218;28;20125;-71
2023/11/24 08:05:52;;;;;;;9.48;3.92;;;;;;;5.74;82.68;97380.69;4964927;28;20033;-73
2023/11/24 08:08:18;;;;;;;13.70;4.35;;;;;;;5.84;83.10;97388.97;4964413;28;20502;-73
2023/11/24 08:10:43;;;;;;;11.70;5.13;;;;;;;5.90;82.29;97393.38;4965960;28;20023;-73
2023/11/24 08:13:09;;;;;;;13.95;5.22;;;;;;;5.85;82.49;97379.91;4983200;28;20536;-73
2023/11/24 08:15:35;;;;;;;13.30;4.38;;;;;;;6.00;83.14;97376.72;4976001;28;20033;-73
2023/11/24 08:18:00;;;;;;;10.18;4.00;;;;;;;6.00;83.33;97366.03;4982801;28;20038;-73
2023/11/24 08:20:26;;;;;;;12.35;3.70;;;;;;;5.86;82.92;97337.97;4960006;28;20026;-72
2023/11/24 08:22:52;;;;;;;9.05;3.22;;;;;;;6.06;83.49;97367.78;4979669;28;20125;-72
2023/11/24 08:25:17;;;;;;;10.80;3.47;;;;;;;5.88;82.94;97346.56;4979173;28;20023;-73
2023/11/24 08:27:44;;;;;;;9.60;3.65;;;;;;;6.05;83.25;97364.31;4970586;28;20042;-74
2023/11/24 08:30:10;;;;;;;10.15;3.83;;;;;;;5.92;82.96;97342.38;4962329;28;20037;-73
2023/11/24 08:32:43;;;;;;;12.98;4.05;;;;;;;6.09;82.51;97359.31;4953636;28;20050;-73
2023/11/24 08:35:08;;;;;;;10.30;4.18;;;;;;;6.03;83.31;97350.38;4963047;28;20504;-73
2023/11/24 08:37:34;;;;;;;10.40;4.20;;;;;;;5.97;82.91;97326.44;4958444;28;20055;-71
2023/11/24 08:40:01;;;;;;;13.35;3.42;;;;;;;6.06;83.45;97346.41;4948512;28;20043;-72
2023/11/24 08:42:27;;;;;;;10.25;4.35;;;;;;;6.05;83.83;97337.56;4977866;28;20033;-72
2023/11/24 08:44:52;;;;;;;15.45;5.82;;;;;;;5.97;84.05;97335.28;4965034;28;20038;-72
2023/11/24 08:47:18;;;;;;;9.48;4.25;;;;;;;5.84;84.70;97324.84;4980449;28;20022;-72
2023/11/24 08:49:43;;;;;;;12.68;4.30;;;;;;;5.94;84.44;97334.94;4958577;28;20046;-72
2023/11/24 08:52:09;;;;;;;12.15;4.20;;;;;;;5.97;84.11;97329.94;4947641;28;20068;-72
2023/11/24 08:54:36;;;;;;;11.65;4.18;;;;;;;6.00;82.98;97328.63;4975286;28;20047;-72
2023/11/24 08:57:05;;;;;;;10.20;3.90;;;;;;;6.07;83.73;97323.97;4962315;28;20471;-72
2023/11/24 08:59:30;;;;;;;9.90;4.32;;;;;;;6.00;82.84;97334.78;4977164;28;20034;-72
2023/11/24 09:01:56;;;;;;;9.50;3.70;;;;;;;5.81;83.94;97330.63;4980257;28;20030;-73
2023/11/24 09:04:22;;;;;;;9.70;3.75;;;;;;;5.82;84.76;97326.09;4958005;28;20038;-74
2023/11/24 09:06:47;;;;;;;7.85;4.22;;;;;;;5.67;83.96;97312.44;4981125;28;20094;-75
2023/11/24 09:09:13;;;;;;;9.35;4.22;;;;;;;5.60;85.46;97324.03;4958392;28;20043;-74
2023/11/24 09:11:38;;;;;;;8.13;3.80;;;;;;;5.64;85.42;97331.59;4951049;28;20080;-74
2023/11/24 09:14:04;;;;;;;6.45;3.30;;;;;;;5.35;86.03;97330.66;4979839;28;20046;-74
2023/11/24 09:16:30;;;;;;;8.40;3.17;;;;;;;5.23;86.00;97311.97;4945474;28;20030;-75
2023/11/24 09:18:58;;;;;;;8.57;2.60;;;;;;;5.29;86.22;97316.41;4944863;29;20043;-72
2023/11/24 09:21:24;;;;;;;5.95;2.92;;;;;;;5.17;86.16;97296.09;4963475;28;20027;-74
2023/11/24 09:23:49;;;;;;;6.68;2.55;;;;;;;5.17;86.25;97307.59;4964641;28;20038;-71
2023/11/24 09:26:15;;;;;;;5.10;2.40;;;;;;;5.20;86.52;97301.78;4965639;28;20053;-74
2023/11/24 09:28:40;;;;;;;5.82;2.80;;;;;;;5.27;86.48;97291.81;4974917;28;20035;-71
2023/11/24 09:31:08;;;;;;;7.30;2.85;;;;;;;5.25;86.46;97299.22;4980579;28;20026;-74
2023/11/24 09:33:37;;;;;;;4.65;2.50;;;;;;;5.26;86.85;97300.03;4958615;28;20039;-72
2023/11/24 09:36:03;;;;;;;5.43;2.45;;;;;;;5.33;87.11;97292.72;4936326;28;20502;-72
2023/11/24 09:38:29;;;;;;;4.32;2.42;;;;;;;5.43;86.04;97301.78;4959653;28;20049;-72
2023/11/24 09:41:01;;;;;;;6.80;3.03;;;;;;;5.46;86.51;97284.47;4980793;28;20023;-72
2023/11/24 09:43:27;;;;;;;4.35;2.60;;;;;;;5.47;86.11;97275.41;4961345;28;20034;-72
2023/11/24 09:45:53;;;;;;;4.40;2.65;;;;;;;5.52;85.68;97283.53;4964962;28;20538;-71
2023/11/24 09:48:19;;;;;;;5.65;2.88;;;;;;;5.55;85.13;97275.84;4962110;28;20034;-72
2023/11/24 09:50:45;;;;;;;2.75;2.13;;;;;;;5.58;84.73;97282.59;4977335;28;20023;-71
2023/11/24 09:53:13;;;;;;;3.33;2.22;;;;;;;5.61;84.85;97274.09;4957546;28;20026;-71
2023/11/24 09:55:41;;;;;;;5.03;2.50;;;;;;;5.80;84.19;97272.09;4985541;28;20027;-71
2023/11/24 09:58:06;;;;;;;5.15;3.22;;;;;;;5.75;84.44;97270.13;4965237;28;20042;-71
2023/11/24 10:00:32;;;;;;;4.82;2.05;;;;;;;5.65;84.00;97245.09;4979639;28;20034;-72
2023/11/24 10:03:02;;;;;;;3.85;2.30;;;;;;;5.50;84.57;97227.72;4959405;28;20491;-71
2023/11/24 10:05:28;;;;;;;4.13;2.03;;;;;;;5.70;84.49;97242.50;4979230;28;20483;-71
2023/11/24 10:07:54;;;;;;;4.35;2.20;;;;;;;5.82;84.39;97238.75;4976980;28;20110;-73
2023/11/24 10:10:25;;;;;;;4.78;3.33;;;;;;;5.98;84.32;97229.19;4966432;28;20109;-75
2023/11/24 10:12:59;;;;;;;4.75;2.15;;;;;;;5.77;84.52;97222.63;4960788;28;20447;-75
2023/11/24 10:15:25;;;;;;;3.15;2.22;;;;;;;5.76;84.65;97198.81;4958342;28;20034;-72
2023/11/24 10:17:50;;;;;;;3.78;2.40;;;;;;;5.83;84.42;97199.50;4946965;28;20053;-73
2023/11/24 10:20:22;;;;;;;5.28;2.38;;;;;;;5.88;84.59;97194.28;4976539;28;20062;-73
2023/11/24 10:22:49;;;;;;;4.43;2.70;;;;;;;6.07;83.84;97201.03;4965219;28;20438;-75
2023/11/24 10:25:24;;;;;;;3.13;2.38;;;;;;;6.24;84.68;97191.19;4961328;28;20034;-75
2023/11/24 10:27:59;;;;;;;3.55;2.15;;;;;;;6.41;84.55;97197.38;4979321;28;20113;-74
2023/11/24 10:30:24;;;;;;;4.93;2.42;;;;;;;6.15;83.92;97192.63;4964301;28;20039;-75
2023/11/24 10:32:50;;;;;;;4.18;2.40;;;;;;;6.22;83.78;97164.69;4963729;28;20034;-75
2023/11/24 10:35:16;;;;;;;4.57;2.42;;;;;;;6.17;84.09;97163.78;4960351;28;20069;-74
2023/11/24 10:37:41;;;;;;;5.78;2.70;;;;;;;6.24;83.57;97140.38;4965976;28;20022;-74
2023/11/24 10:40:11;;;;;;;7.10;3.08;;;;;;;6.33;83.35;97167.53;4946013;28;20049;-75
2023/11/24 10:42:38;;;;;;;3.75;2.50;;;;;;;6.42;82.96;97155.41;4960661;28;20398;-75
2023/11/24 10:45:07;;;;;;;8.13;3.00;;;;;;;6.35;82.38;97160.88;4963973;28;20104;-75
2023/11/24 10:47:43;;;;;;;5.22;2.35;;;;;;;6.55;80.84;97147.84;4953552;28;20446;-75
2023/11/24 10:50:12;;;;;;;6.90;3.30;;;;;;;6.40;80.70;97134.22;4951228;28;20042;-74
2023/11/24 10:53:06;;;;;;;7.55;3.33;;;;;;;6.44;79.30;97115.84;4954062;28;20027;-75
2023/11/24 10:55:34;;;;;;;7.93;4.60;;;;;;;6.44;79.86;97137.25;4976518;28;20049;-74
2023/11/24 10:58:01;;;;;;;5.60;2.50;;;;;;;6.48;79.55;97115.09;4962894;28;20026;-72
2023/11/24 11:00:27;;;;;;;4.57;2.45;;;;;;;6.33;78.89;97098.81;4962440;28;20494;-73
2023/11/24 11:02:55;;;;;;;4.63;2.55;;;;;;;6.53;78.85;97125.88;4955891;28;20034;-73
2023/11/24 11:05:38;;;;;;;7.30;2.50;;;;;;;6.39;78.75;97107.75;4978881;28;20038;-73
2023/11/24 11:08:28;;;;;;;8.77;3.03;;;;;;;6.41;79.13;97117.13;4960046;28;20479;-73
2023/11/24 11:11:12;;;;;;;3.83;2.40;;;;;;;6.55;79.46;97097.03;4973739;28;20062;-73
2023/11/24 11:13:40;;;;;;;6.22;2.85;;;;;;;6.30;79.64;97110.03;4968816;28;20054;-73
2023/11/24 11:16:09;;;;;;;5.90;2.55;;;;;;;6.31;79.67;97087.56;4960544;28;20073;-73
2023/11/24 11:18:35;;;;;;;5.70;2.47;;;;;;;6.25;79.81;97085.88;4966095;28;20035;-73
2023/11/24 11:21:20;;;;;;;4.55;2.28;;;;;;;6.32;78.86;97086.53;4963105;28;20026;-71
2023/11/24 11:23:56;;;;;;;5.50;2.40;;;;;;;6.39;78.73;97092.50;4965623;28;20562;-75
2023/11/24 11:26:49;;;;;;;3.17;2.35;;;;;;;6.48;79.38;97079.53;4959452;28;20118;-75
2023/11/24 11:29:16;;;;;;;5.95;2.65;;;;;;;6.50;79.43;97072.06;4968838;28;20086;-73
2023/11/24 11:31:46;;;;;;;7.82;2.30;;;;;;;6.68;79.13;97085.97;4950515;28;20027;-73
2023/11/24 11:34:16;;;;;;;3.03;2.42;;;;;;;6.33;79.82;97072.09;4966214;28;20038;-75
2023/11/24 11:37:14;;;;;;;6.30;3.05;;;;;;;6.44;80.22;97079.19;4970197;28;20035;-73